HAZ6172 ZYHB-RCTP
Flight info
| Callsign | HAZ6172 |
|---|---|
| Flight time | N/A |
| Altitude | 40100 |
| Route | DUK19D DUKIR W655 NIMEM W205 NULRA A588 CHI W107 SANKO/K0900S1250 A326 AKARA/K0907F390 A326 MIGOL/K0906S1220 B591 KASKA/N0488F430 L2 BERBA/N0465F240 B591 BAKER BAKER1A |
| Aircraft | A359/H-SDE2E3GHIJ3J4J5LM1ORWXY/LB1D1 |
Departure
| Time | 2026-05-04 07:20 |
|---|---|
| Airport | Harbin Taiping International Airport (ZYHB) |
Arrival
| Time | N/A |
|---|---|
| Airport | Taiwan Taoyuan International Airport (RCTP) |
| Time | Latitude | Longitude | Altitude | Speed | Heading |
|---|---|---|---|---|---|
| 2026-05-04 07:09 | 45.61342 | 126.23110 | 473 ft | 0 kts | 39° |
| 2026-05-04 07:09 | 45.61341 | 126.23109 | 473 ft | 0 kts | 39° |
| 2026-05-04 07:12 | 45.61339 | 126.23106 | 473 ft | 0 kts | 39° |
| 2026-05-04 07:15 | 45.61340 | 126.23107 | 473 ft | 1 kts | 39° |
| 2026-05-04 07:15 | 45.61362 | 126.23133 | 472 ft | 8 kts | 39° |
| 2026-05-04 07:15 | 45.61382 | 126.23211 | 472 ft | 10 kts | 112° |
| 2026-05-04 07:16 | 45.61333 | 126.23308 | 472 ft | 15 kts | 127° |
| 2026-05-04 07:16 | 45.61257 | 126.23404 | 472 ft | 10 kts | 167° |
| 2026-05-04 07:16 | 45.61203 | 126.23371 | 472 ft | 10 kts | 217° |
| 2026-05-04 07:16 | 45.61137 | 126.23294 | 472 ft | 14 kts | 219° |
| 2026-05-04 07:17 | 45.61050 | 126.23193 | 470 ft | 18 kts | 220° |
| 2026-05-04 07:17 | 45.60947 | 126.23070 | 469 ft | 21 kts | 220° |
| 2026-05-04 07:17 | 45.60834 | 126.22934 | 469 ft | 20 kts | 220° |
| 2026-05-04 07:17 | 45.60750 | 126.22930 | 472 ft | 12 kts | 140° |
| 2026-05-04 07:18 | 45.60683 | 126.23039 | 475 ft | 17 kts | 130° |
| 2026-05-04 07:18 | 45.60597 | 126.23185 | 470 ft | 21 kts | 130° |
| 2026-05-04 07:18 | 45.60492 | 126.23363 | 471 ft | 25 kts | 130° |
| 2026-05-04 07:18 | 45.60374 | 126.23567 | 471 ft | 28 kts | 129° |
| 2026-05-04 07:19 | 45.60259 | 126.23759 | 472 ft | 17 kts | 140° |
| 2026-05-04 07:19 | 45.60198 | 126.23761 | 475 ft | 9 kts | 203° |
| 2026-05-04 07:19 | 45.60136 | 126.23695 | 472 ft | 13 kts | 219° |
| 2026-05-04 07:19 | 45.59931 | 126.23455 | 476 ft | 74 kts | 219° |
| 2026-05-04 07:20 | 45.59361 | 126.22786 | 488 ft | 136 kts | 219° |
| 2026-05-04 07:20 | 45.58521 | 126.21796 | 801 ft | 164 kts | 220° |
| 2026-05-04 07:20 | 45.57649 | 126.20807 | 1729 ft | 157 kts | 221° |
| 2026-05-04 07:20 | 45.56786 | 126.19832 | 2386 ft | 169 kts | 223° |
| 2026-05-04 07:22 | 45.48599 | 126.10204 | 7006 ft | 259 kts | 223° |
| 2026-05-04 07:22 | 45.47184 | 126.08566 | 7909 ft | 266 kts | 222° |
| 2026-05-04 07:23 | 45.45736 | 126.06909 | 8840 ft | 272 kts | 223° |
| 2026-05-04 07:23 | 45.44251 | 126.05203 | 9776 ft | 276 kts | 224° |
| 2026-05-04 07:23 | 45.42733 | 126.03448 | 10475 ft | 290 kts | 224° |
| 2026-05-04 07:23 | 45.41106 | 126.01553 | 10876 ft | 313 kts | 224° |
| 2026-05-04 07:24 | 45.39361 | 125.99517 | 11294 ft | 335 kts | 224° |
| 2026-05-04 07:24 | 45.37504 | 125.97376 | 11794 ft | 353 kts | 223° |
| 2026-05-04 07:24 | 45.35326 | 125.95579 | 12475 ft | 372 kts | 206° |
| 2026-05-04 07:24 | 45.32738 | 125.94820 | 13226 ft | 389 kts | 188° |
| 2026-05-04 07:25 | 45.29994 | 125.94733 | 13906 ft | 399 kts | 184° |
| 2026-05-04 07:26 | 45.09737 | 125.94704 | 18858 ft | 434 kts | 184° |
| 2026-05-04 07:27 | 45.06656 | 125.94677 | 19504 ft | 440 kts | 184° |
| 2026-05-04 07:27 | 45.03608 | 125.94649 | 20161 ft | 446 kts | 183° |
| 2026-05-04 07:27 | 45.00486 | 125.94622 | 20815 ft | 451 kts | 183° |
| 2026-05-04 07:27 | 44.97331 | 125.94593 | 21474 ft | 456 kts | 182° |
| 2026-05-04 07:28 | 44.94141 | 125.94565 | 22110 ft | 462 kts | 182° |
| 2026-05-04 07:28 | 44.90908 | 125.94536 | 22766 ft | 467 kts | 182° |
| 2026-05-04 07:28 | 44.87644 | 125.94507 | 23387 ft | 472 kts | 182° |
| 2026-05-04 07:28 | 44.84342 | 125.94477 | 23927 ft | 477 kts | 182° |
| 2026-05-04 07:29 | 44.81005 | 125.94447 | 24460 ft | 482 kts | 182° |
| 2026-05-04 07:29 | 44.77635 | 125.94416 | 24980 ft | 487 kts | 182° |
| 2026-05-04 07:29 | 44.74246 | 125.94266 | 25500 ft | 490 kts | 187° |
| 2026-05-04 07:29 | 44.70838 | 125.93667 | 26046 ft | 493 kts | 192° |
| 2026-05-04 07:30 | 44.67444 | 125.92922 | 26569 ft | 497 kts | 192° |
| 2026-05-04 07:30 | 44.64002 | 125.92146 | 27098 ft | 502 kts | 192° |
| 2026-05-04 07:30 | 44.60534 | 125.91369 | 27618 ft | 507 kts | 192° |
| 2026-05-04 07:30 | 44.57038 | 125.90594 | 28130 ft | 511 kts | 192° |
| 2026-05-04 07:31 | 44.53504 | 125.89816 | 28637 ft | 516 kts | 193° |
| 2026-05-04 07:31 | 44.49951 | 125.89036 | 29125 ft | 520 kts | 193° |
| 2026-05-04 07:33 | 44.24304 | 125.83445 | 31924 ft | 544 kts | 193° |
| 2026-05-04 07:33 | 44.20551 | 125.82632 | 32277 ft | 547 kts | 193° |
| 2026-05-04 07:33 | 44.16782 | 125.81827 | 32615 ft | 550 kts | 192° |
| 2026-05-04 07:33 | 44.12944 | 125.81444 | 33068 ft | 555 kts | 183° |
| 2026-05-04 07:34 | 44.09082 | 125.81874 | 33522 ft | 559 kts | 172° |
| 2026-05-04 07:34 | 44.05307 | 125.83207 | 33908 ft | 561 kts | 163° |
| 2026-05-04 07:34 | 44.01626 | 125.84979 | 34384 ft | 558 kts | 160° |
| 2026-05-04 07:34 | 43.97952 | 125.86637 | 34992 ft | 551 kts | 166° |
| 2026-05-04 07:35 | 43.94224 | 125.87622 | 35598 ft | 542 kts | 176° |
| 2026-05-04 07:35 | 43.90496 | 125.87751 | 36152 ft | 532 kts | 187° |
| 2026-05-04 07:35 | 43.86834 | 125.87301 | 36687 ft | 525 kts | 190° |
| 2026-05-04 07:35 | 43.83225 | 125.86653 | 37191 ft | 520 kts | 192° |
| 2026-05-04 07:36 | 43.79687 | 125.85794 | 37648 ft | 514 kts | 197° |
| 2026-05-04 07:36 | 43.76301 | 125.84334 | 38061 ft | 506 kts | 206° |
| 2026-05-04 07:38 | 43.54738 | 125.69127 | 39776 ft | 498 kts | 211° |
| 2026-05-04 07:38 | 43.51662 | 125.66934 | 39817 ft | 499 kts | 211° |
| 2026-05-04 07:38 | 43.45496 | 125.62563 | 39824 ft | 498 kts | 211° |
| 2026-05-04 07:39 | 43.40375 | 125.58944 | 39825 ft | 498 kts | 211° |
| 2026-05-04 07:39 | 43.33172 | 125.53859 | 39825 ft | 498 kts | 211° |
| 2026-05-04 07:40 | 43.28054 | 125.50253 | 39832 ft | 498 kts | 211° |
| 2026-05-04 07:40 | 43.21891 | 125.45924 | 39830 ft | 498 kts | 211° |
| 2026-05-04 07:41 | 43.15732 | 125.41607 | 39835 ft | 498 kts | 211° |
| 2026-05-04 07:41 | 43.09566 | 125.37293 | 39838 ft | 497 kts | 211° |
| 2026-05-04 07:42 | 43.03402 | 125.32989 | 39843 ft | 497 kts | 211° |
| 2026-05-04 07:42 | 42.97231 | 125.28691 | 39841 ft | 497 kts | 211° |
| 2026-05-04 07:43 | 42.91063 | 125.24404 | 39844 ft | 497 kts | 211° |
| 2026-05-04 07:43 | 42.84901 | 125.20132 | 39848 ft | 497 kts | 211° |
| 2026-05-04 07:44 | 42.78734 | 125.15839 | 39853 ft | 497 kts | 211° |
| 2026-05-04 07:44 | 42.72629 | 125.11548 | 39856 ft | 497 kts | 212° |
| 2026-05-04 07:45 | 42.66494 | 125.07238 | 39855 ft | 497 kts | 212° |
| 2026-05-04 07:45 | 42.60345 | 125.02935 | 39861 ft | 497 kts | 211° |
| 2026-05-04 07:46 | 42.54201 | 124.98648 | 39862 ft | 497 kts | 211° |
| 2026-05-04 07:46 | 42.48057 | 124.94372 | 39868 ft | 497 kts | 211° |
| 2026-05-04 07:47 | 42.41903 | 124.90099 | 39871 ft | 496 kts | 211° |
| 2026-05-04 07:49 | 42.17312 | 124.73115 | 39889 ft | 496 kts | 211° |
| 2026-05-04 07:49 | 42.11167 | 124.68895 | 39884 ft | 496 kts | 211° |
| 2026-05-04 07:50 | 42.05015 | 124.64680 | 39895 ft | 496 kts | 211° |
| 2026-05-04 07:50 | 41.98857 | 124.60470 | 39899 ft | 496 kts | 211° |
| 2026-05-04 07:51 | 41.92812 | 124.56045 | 39904 ft | 494 kts | 214° |
| 2026-05-04 07:51 | 41.86859 | 124.51443 | 39907 ft | 494 kts | 214° |
| 2026-05-04 07:52 | 41.80908 | 124.46847 | 39910 ft | 494 kts | 214° |
| 2026-05-04 07:52 | 41.74980 | 124.42320 | 39913 ft | 494 kts | 214° |
| 2026-05-04 07:54 | 41.51061 | 124.24236 | 39927 ft | 494 kts | 214° |
| 2026-05-04 07:55 | 41.45068 | 124.19727 | 39927 ft | 494 kts | 214° |
| 2026-05-04 07:55 | 41.39085 | 124.15250 | 39942 ft | 494 kts | 213° |
| 2026-05-04 07:56 | 41.33047 | 124.10855 | 39939 ft | 494 kts | 213° |
| 2026-05-04 07:56 | 41.27005 | 124.06504 | 39939 ft | 494 kts | 213° |
| 2026-05-04 07:57 | 41.20965 | 124.02151 | 39946 ft | 494 kts | 213° |
| 2026-05-04 07:57 | 41.14926 | 123.97802 | 39949 ft | 493 kts | 213° |
| 2026-05-04 07:58 | 41.08892 | 123.93462 | 39952 ft | 493 kts | 213° |
| 2026-05-04 07:58 | 41.02869 | 123.89138 | 39954 ft | 492 kts | 213° |
| 2026-05-04 07:59 | 40.96887 | 123.84852 | 39962 ft | 492 kts | 213° |
| 2026-05-04 07:59 | 40.90866 | 123.80548 | 39965 ft | 491 kts | 212° |
| 2026-05-04 08:00 | 40.84858 | 123.76261 | 39965 ft | 491 kts | 212° |
| 2026-05-04 08:02 | 40.61051 | 123.58814 | 39976 ft | 488 kts | 213° |
| 2026-05-04 08:02 | 40.55116 | 123.54475 | 39980 ft | 488 kts | 213° |
| 2026-05-04 08:03 | 40.49187 | 123.50145 | 39978 ft | 487 kts | 213° |
| 2026-05-04 08:03 | 40.43259 | 123.45825 | 39983 ft | 487 kts | 213° |
| 2026-05-04 08:04 | 40.37330 | 123.41513 | 39985 ft | 487 kts | 213° |
| 2026-05-04 08:04 | 40.31408 | 123.37213 | 39984 ft | 487 kts | 213° |
| 2026-05-04 08:05 | 40.25476 | 123.32917 | 39988 ft | 487 kts | 213° |
| 2026-05-04 08:05 | 40.19555 | 123.28638 | 39992 ft | 486 kts | 213° |
| 2026-05-04 08:06 | 40.13642 | 123.24372 | 39995 ft | 486 kts | 213° |
| 2026-05-04 08:06 | 40.07696 | 123.20092 | 40000 ft | 486 kts | 213° |
| 2026-05-04 08:08 | 39.84067 | 123.02936 | 40008 ft | 486 kts | 213° |
| 2026-05-04 08:11 | 39.57556 | 122.83819 | 40024 ft | 484 kts | 213° |
| 2026-05-04 08:11 | 39.48713 | 122.77478 | 40036 ft | 484 kts | 213° |
| 2026-05-04 08:12 | 39.42821 | 122.73264 | 40039 ft | 484 kts | 213° |
| 2026-05-04 08:12 | 39.36939 | 122.69065 | 40044 ft | 483 kts | 213° |
| 2026-05-04 08:13 | 39.31049 | 122.64870 | 40050 ft | 483 kts | 213° |
| 2026-05-04 08:13 | 39.24772 | 122.61586 | 40053 ft | 493 kts | 198° |
| 2026-05-04 08:14 | 39.17971 | 122.60066 | 40060 ft | 497 kts | 193° |
| 2026-05-04 08:16 | 38.90516 | 122.55741 | 40078 ft | 496 kts | 192° |
| 2026-05-04 08:16 | 38.83680 | 122.54638 | 40081 ft | 495 kts | 192° |
| 2026-05-04 08:17 | 38.76850 | 122.53536 | 40080 ft | 494 kts | 192° |
| 2026-05-04 08:17 | 38.70044 | 122.52442 | 40085 ft | 493 kts | 192° |
| 2026-05-04 08:19 | 38.42888 | 122.48105 | 40103 ft | 490 kts | 192° |
| 2026-05-04 08:20 | 38.36115 | 122.47029 | 40285 ft | 491 kts | 192° |
| 2026-05-04 08:20 | 38.32701 | 122.46736 | 40507 ft | 495 kts | 185° |
| 2026-05-04 08:20 | 38.29251 | 122.47048 | 40717 ft | 501 kts | 176° |
| 2026-05-04 08:21 | 38.25834 | 122.48071 | 40903 ft | 508 kts | 166° |
| 2026-05-04 08:21 | 38.22559 | 122.49854 | 41055 ft | 516 kts | 156° |
| 2026-05-04 08:21 | 38.19542 | 122.52383 | 41107 ft | 524 kts | 144° |
| 2026-05-04 08:21 | 38.16830 | 122.55493 | 41116 ft | 526 kts | 140° |
| 2026-05-04 08:22 | 38.11689 | 122.62109 | 41117 ft | 528 kts | 137° |
| 2026-05-04 08:24 | 37.91225 | 122.88904 | 41126 ft | 528 kts | 139° |
| 2026-05-04 08:24 | 37.86113 | 122.95497 | 41125 ft | 528 kts | 139° |
| 2026-05-04 08:25 | 37.80960 | 123.02130 | 41127 ft | 529 kts | 139° |
| 2026-05-04 08:25 | 37.75800 | 123.08759 | 41130 ft | 529 kts | 139° |
| 2026-05-04 08:27 | 37.53831 | 123.32480 | 41141 ft | 505 kts | 168° |
| 2026-05-04 08:28 | 37.48143 | 123.33718 | 41147 ft | 492 kts | 182° |
| 2026-05-04 08:28 | 37.41317 | 123.34012 | 41145 ft | 489 kts | 185° |
| 2026-05-04 08:29 | 37.34516 | 123.34107 | 41144 ft | 489 kts | 185° |
| 2026-05-04 08:31 | 37.07343 | 123.34803 | 41156 ft | 489 kts | 185° |
| 2026-05-04 08:33 | 36.80136 | 123.35571 | 41166 ft | 489 kts | 185° |
| 2026-05-04 08:35 | 36.52980 | 123.36325 | 41174 ft | 487 kts | 185° |
| 2026-05-04 08:35 | 36.46208 | 123.36511 | 41174 ft | 487 kts | 185° |
| 2026-05-04 08:37 | 36.22547 | 123.37178 | 41183 ft | 486 kts | 185° |
| 2026-05-04 08:38 | 36.15784 | 123.37369 | 41180 ft | 486 kts | 185° |
| 2026-05-04 08:38 | 36.09043 | 123.37560 | 41194 ft | 485 kts | 185° |
| 2026-05-04 08:40 | 35.82075 | 123.38318 | 41190 ft | 484 kts | 186° |
| 2026-05-04 08:41 | 35.75336 | 123.38507 | 41193 ft | 484 kts | 186° |
| 2026-05-04 08:41 | 35.68611 | 123.38695 | 41196 ft | 484 kts | 186° |
| 2026-05-04 08:42 | 35.61881 | 123.38883 | 41195 ft | 483 kts | 186° |
| 2026-05-04 08:42 | 35.55152 | 123.39070 | 41199 ft | 483 kts | 186° |
| 2026-05-04 08:43 | 35.48451 | 123.39255 | 41195 ft | 483 kts | 186° |
| 2026-05-04 08:43 | 35.41772 | 123.39440 | 41198 ft | 483 kts | 186° |
| 2026-05-04 08:44 | 35.35006 | 123.39628 | 41199 ft | 482 kts | 186° |
| 2026-05-04 08:46 | 35.08229 | 123.40369 | 41208 ft | 482 kts | 186° |
| 2026-05-04 08:46 | 35.01531 | 123.40556 | 41211 ft | 481 kts | 186° |
| 2026-05-04 08:47 | 34.94839 | 123.40901 | 41212 ft | 483 kts | 185° |
| 2026-05-04 08:47 | 34.88109 | 123.41438 | 41214 ft | 484 kts | 184° |
| 2026-05-04 08:48 | 34.81394 | 123.42025 | 41213 ft | 484 kts | 184° |
| 2026-05-04 08:48 | 34.74677 | 123.42619 | 41213 ft | 484 kts | 184° |
| 2026-05-04 08:49 | 34.67971 | 123.43205 | 41213 ft | 483 kts | 184° |